BEL3160 LIMC-EBBR
Flight info
| Callsign | BEL3160 |
|---|---|
| Flight time | 1h 7m |
| Altitude | 34000 |
| Route | DOGUB6TXAOSTA5W/35R AOSTA DCT ORSUD DCT MOLUS DCT GILIR DCT PENDU DCT IXILU DCT GIVOR/N0433F320 DCT SORAL DCT IBERA N853 DIK Y37 BATTY |
| Aircraft | B739/M-SDE2E3FGHIRWXY/LB1 |
Departure
| Time | 2026-05-05 21:35 |
|---|---|
| Airport | Milan Malpensa International Airport (LIMC) |
Arrival
| Time | 2026-05-05 22:42 |
|---|---|
| Airport | Brussels Airport (EBBR) |
| Time | Latitude | Longitude | Altitude | Speed | Heading |
|---|---|---|---|---|---|
| 2026-05-05 20:45 | 45.62527 | 8.71530 | 730 ft | 0 kts | 168° |
| 2026-05-05 21:08 | 45.62543 | 8.71525 | 729 ft | 4 kts | 168° |
| 2026-05-05 21:08 | 45.62569 | 8.71518 | 731 ft | 4 kts | 169° |
| 2026-05-05 21:09 | 45.62595 | 8.71511 | 729 ft | 4 kts | 165° |
| 2026-05-05 21:09 | 45.62619 | 8.71497 | 730 ft | 4 kts | 139° |
| 2026-05-05 21:09 | 45.62627 | 8.71484 | 731 ft | 0 kts | 119° |
| 2026-05-05 21:14 | 45.62626 | 8.71487 | 730 ft | 1 kts | 124° |
| 2026-05-05 21:14 | 45.62615 | 8.71518 | 731 ft | 6 kts | 106° |
| 2026-05-05 21:14 | 45.62620 | 8.71588 | 732 ft | 9 kts | 75° |
| 2026-05-05 21:15 | 45.62650 | 8.71678 | 732 ft | 11 kts | 56° |
| 2026-05-05 21:15 | 45.62652 | 8.71831 | 732 ft | 14 kts | 80° |
| 2026-05-05 21:15 | 45.62665 | 8.71927 | 732 ft | 15 kts | 78° |
| 2026-05-05 21:15 | 45.62668 | 8.72027 | 731 ft | 2 kts | 113° |
| 2026-05-05 21:16 | 45.62669 | 8.72066 | 732 ft | 6 kts | 77° |
| 2026-05-05 21:16 | 45.62654 | 8.72132 | 731 ft | 9 kts | 137° |
| 2026-05-05 21:16 | 45.62579 | 8.72165 | 730 ft | 14 kts | 168° |
| 2026-05-05 21:16 | 45.62468 | 8.72195 | 727 ft | 18 kts | 169° |
| 2026-05-05 21:17 | 45.62357 | 8.72131 | 726 ft | 13 kts | 219° |
| 2026-05-05 21:17 | 45.62277 | 8.72132 | 723 ft | 14 kts | 181° |
| 2026-05-05 21:17 | 45.62196 | 8.72040 | 722 ft | 17 kts | 238° |
| 2026-05-05 21:17 | 45.62112 | 8.71979 | 723 ft | 15 kts | 168° |
| 2026-05-05 21:18 | 45.61996 | 8.72012 | 720 ft | 19 kts | 169° |
| 2026-05-05 21:18 | 45.61850 | 8.72053 | 719 ft | 23 kts | 169° |
| 2026-05-05 21:18 | 45.61679 | 8.72101 | 712 ft | 27 kts | 169° |
| 2026-05-05 21:18 | 45.61484 | 8.72156 | 705 ft | 30 kts | 169° |
| 2026-05-05 21:19 | 45.61275 | 8.72214 | 695 ft | 30 kts | 169° |
| 2026-05-05 21:19 | 45.61078 | 8.72267 | 694 ft | 28 kts | 169° |
| 2026-05-05 21:19 | 45.60892 | 8.72317 | 691 ft | 26 kts | 168° |
| 2026-05-05 21:19 | 45.60717 | 8.72369 | 697 ft | 25 kts | 168° |
| 2026-05-05 21:20 | 45.60637 | 8.72528 | 692 ft | 21 kts | 97° |
| 2026-05-05 21:20 | 45.60624 | 8.72730 | 693 ft | 20 kts | 95° |
| 2026-05-05 21:20 | 45.60609 | 8.72926 | 690 ft | 20 kts | 96° |
| 2026-05-05 21:20 | 45.60596 | 8.73116 | 689 ft | 19 kts | 95° |
| 2026-05-05 21:21 | 45.60644 | 8.73275 | 695 ft | 18 kts | 32° |
| 2026-05-05 21:21 | 45.60759 | 8.73345 | 692 ft | 18 kts | 22° |
| 2026-05-05 21:21 | 45.60873 | 8.73404 | 698 ft | 17 kts | 7° |
| 2026-05-05 21:21 | 45.60986 | 8.73379 | 698 ft | 17 kts | 358° |
| 2026-05-05 21:22 | 45.61098 | 8.73353 | 693 ft | 16 kts | 348° |
| 2026-05-05 21:22 | 45.61104 | 8.73352 | 694 ft | 0 kts | 348° |
| 2026-05-05 21:22 | 45.61113 | 8.73349 | 697 ft | 4 kts | 348° |
| 2026-05-05 21:22 | 45.61170 | 8.73333 | 695 ft | 11 kts | 350° |
| 2026-05-05 21:23 | 45.61243 | 8.73313 | 691 ft | 10 kts | 348° |
| 2026-05-05 21:23 | 45.61287 | 8.73300 | 693 ft | 0 kts | 348° |
| 2026-05-05 21:24 | 45.61298 | 8.73297 | 698 ft | 5 kts | 350° |
| 2026-05-05 21:24 | 45.61364 | 8.73281 | 701 ft | 12 kts | 350° |
| 2026-05-05 21:24 | 45.61444 | 8.73261 | 693 ft | 12 kts | 349° |
| 2026-05-05 21:25 | 45.61522 | 8.73238 | 700 ft | 11 kts | 348° |
| 2026-05-05 21:25 | 45.61597 | 8.73229 | 697 ft | 11 kts | 21° |
| 2026-05-05 21:25 | 45.61627 | 8.73325 | 704 ft | 12 kts | 80° |
| 2026-05-05 21:25 | 45.61630 | 8.73443 | 699 ft | 12 kts | 109° |
| 2026-05-05 21:26 | 45.61600 | 8.73521 | 696 ft | 0 kts | 115° |
| 2026-05-05 21:28 | 45.61594 | 8.73541 | 697 ft | 5 kts | 108° |
| 2026-05-05 21:29 | 45.61588 | 8.73584 | 696 ft | 0 kts | 96° |
| 2026-05-05 21:32 | 45.61588 | 8.73589 | 697 ft | 2 kts | 94° |
| 2026-05-05 21:32 | 45.61593 | 8.73650 | 693 ft | 11 kts | 77° |
| 2026-05-05 21:32 | 45.61657 | 8.73727 | 696 ft | 15 kts | 0° |
| 2026-05-05 21:33 | 45.61686 | 8.73719 | 700 ft | 0 kts | 348° |
| 2026-05-05 21:34 | 45.61693 | 8.73717 | 699 ft | 7 kts | 348° |
| 2026-05-05 21:34 | 45.61998 | 8.73630 | 700 ft | 83 kts | 349° |
| 2026-05-05 21:34 | 45.62793 | 8.73414 | 726 ft | 147 kts | 349° |
| 2026-05-05 21:34 | 45.63968 | 8.73089 | 748 ft | 196 kts | 349° |
| 2026-05-05 21:35 | 45.65368 | 8.72697 | 1312 ft | 204 kts | 349° |
| 2026-05-05 21:35 | 45.66756 | 8.72348 | 2335 ft | 198 kts | 356° |
| 2026-05-05 21:35 | 45.68174 | 8.72342 | 2942 ft | 215 kts | 3° |
| 2026-05-05 21:35 | 45.69759 | 8.72418 | 3232 ft | 238 kts | 2° |
| 2026-05-05 21:36 | 45.71437 | 8.72432 | 3822 ft | 242 kts | 354° |
| 2026-05-05 21:36 | 45.72976 | 8.71569 | 4497 ft | 241 kts | 316° |
| 2026-05-05 21:36 | 45.73837 | 8.69566 | 5139 ft | 239 kts | 281° |
| 2026-05-05 21:36 | 45.73846 | 8.67257 | 5759 ft | 237 kts | 254° |
| 2026-05-05 21:37 | 45.73250 | 8.65063 | 6411 ft | 237 kts | 243° |
| 2026-05-05 21:37 | 45.72503 | 8.62944 | 7028 ft | 239 kts | 241° |
| 2026-05-05 21:37 | 45.71740 | 8.60815 | 7640 ft | 241 kts | 241° |
| 2026-05-05 21:37 | 45.70885 | 8.58709 | 8037 ft | 254 kts | 236° |
| 2026-05-05 21:38 | 45.69891 | 8.56495 | 8294 ft | 272 kts | 236° |
| 2026-05-05 21:38 | 45.68859 | 8.54193 | 8896 ft | 276 kts | 236° |
| 2026-05-05 21:38 | 45.67824 | 8.51865 | 9598 ft | 278 kts | 236° |
| 2026-05-05 21:38 | 45.66783 | 8.49533 | 10251 ft | 280 kts | 236° |
| 2026-05-05 21:39 | 45.65702 | 8.47112 | 10426 ft | 301 kts | 236° |
| 2026-05-05 21:39 | 45.64542 | 8.44511 | 10600 ft | 320 kts | 236° |
| 2026-05-05 21:39 | 45.63311 | 8.41754 | 10745 ft | 338 kts | 237° |
| 2026-05-05 21:39 | 45.61963 | 8.38949 | 11143 ft | 346 kts | 231° |
| 2026-05-05 21:40 | 45.60407 | 8.36299 | 11782 ft | 347 kts | 229° |
| 2026-05-05 21:40 | 45.58942 | 8.33553 | 12357 ft | 352 kts | 242° |
| 2026-05-05 21:40 | 45.58312 | 8.30174 | 12957 ft | 356 kts | 266° |
| 2026-05-05 21:40 | 45.58542 | 8.26670 | 13697 ft | 359 kts | 283° |
| 2026-05-05 21:41 | 45.59354 | 8.23264 | 14236 ft | 363 kts | 287° |
| 2026-05-05 21:41 | 45.60184 | 8.19854 | 14706 ft | 367 kts | 286° |
| 2026-05-05 21:41 | 45.61009 | 8.16372 | 15190 ft | 371 kts | 285° |
| 2026-05-05 21:41 | 45.61829 | 8.12867 | 15741 ft | 373 kts | 285° |
| 2026-05-05 21:42 | 45.62647 | 8.09348 | 16292 ft | 375 kts | 285° |
| 2026-05-05 21:42 | 45.63457 | 8.05845 | 16792 ft | 377 kts | 284° |
| 2026-05-05 21:42 | 45.64280 | 8.02274 | 17301 ft | 381 kts | 284° |
| 2026-05-05 21:42 | 45.65112 | 7.98662 | 17704 ft | 384 kts | 284° |
| 2026-05-05 21:43 | 45.65948 | 7.95033 | 18199 ft | 385 kts | 284° |
| 2026-05-05 21:43 | 45.66782 | 7.91396 | 18663 ft | 387 kts | 284° |
| 2026-05-05 21:43 | 45.67624 | 7.87715 | 19080 ft | 390 kts | 283° |
| 2026-05-05 21:43 | 45.68468 | 7.84008 | 19485 ft | 393 kts | 283° |
| 2026-05-05 21:44 | 45.69318 | 7.80271 | 19928 ft | 396 kts | 283° |
| 2026-05-05 21:44 | 45.70170 | 7.76522 | 20420 ft | 397 kts | 283° |
| 2026-05-05 21:44 | 45.71027 | 7.72748 | 20876 ft | 399 kts | 283° |
| 2026-05-05 21:44 | 45.71887 | 7.68949 | 21259 ft | 404 kts | 283° |
| 2026-05-05 21:45 | 45.72755 | 7.65106 | 21681 ft | 406 kts | 283° |
| 2026-05-05 21:45 | 45.73627 | 7.61247 | 22044 ft | 408 kts | 283° |
| 2026-05-05 21:45 | 45.74501 | 7.57367 | 22416 ft | 410 kts | 283° |
| 2026-05-05 21:45 | 45.75378 | 7.53468 | 22876 ft | 412 kts | 283° |
| 2026-05-05 21:46 | 45.76259 | 7.49546 | 23298 ft | 415 kts | 283° |
| 2026-05-05 21:46 | 45.77145 | 7.45595 | 23642 ft | 418 kts | 283° |
| 2026-05-05 21:46 | 45.78025 | 7.41661 | 23946 ft | 421 kts | 283° |
| 2026-05-05 21:46 | 45.78947 | 7.37671 | 24294 ft | 425 kts | 287° |
| 2026-05-05 21:47 | 45.80492 | 7.33985 | 24502 ft | 442 kts | 307° |
| 2026-05-05 21:47 | 45.82849 | 7.31088 | 24954 ft | 448 kts | 322° |
| 2026-05-05 21:47 | 45.85420 | 7.28640 | 25575 ft | 442 kts | 321° |
| 2026-05-05 21:47 | 45.87985 | 7.26117 | 25611 ft | 451 kts | 321° |
| 2026-05-05 21:48 | 45.90582 | 7.23505 | 25778 ft | 456 kts | 320° |
| 2026-05-05 21:48 | 45.93171 | 7.20881 | 26166 ft | 456 kts | 320° |
| 2026-05-05 21:48 | 45.95754 | 7.18254 | 26479 ft | 457 kts | 320° |
| 2026-05-05 21:48 | 45.98338 | 7.15613 | 26671 ft | 460 kts | 320° |
| 2026-05-05 21:49 | 46.00980 | 7.12904 | 26901 ft | 463 kts | 320° |
| 2026-05-05 21:49 | 46.03580 | 7.10231 | 27244 ft | 464 kts | 320° |
| 2026-05-05 21:49 | 46.06204 | 7.07533 | 27620 ft | 464 kts | 320° |
| 2026-05-05 21:49 | 46.08845 | 7.04815 | 27937 ft | 466 kts | 320° |
| 2026-05-05 21:50 | 46.11491 | 7.02086 | 28147 ft | 469 kts | 319° |
| 2026-05-05 21:50 | 46.14149 | 6.99343 | 28391 ft | 471 kts | 319° |
| 2026-05-05 21:50 | 46.16816 | 6.96588 | 28691 ft | 470 kts | 319° |
| 2026-05-05 21:50 | 46.19471 | 6.93845 | 29098 ft | 468 kts | 319° |
| 2026-05-05 21:51 | 46.22105 | 6.91122 | 29573 ft | 465 kts | 318° |
| 2026-05-05 21:51 | 46.24725 | 6.88409 | 29939 ft | 463 kts | 318° |
| 2026-05-05 21:51 | 46.27345 | 6.85688 | 30223 ft | 464 kts | 318° |
| 2026-05-05 21:51 | 46.29963 | 6.82966 | 30531 ft | 463 kts | 318° |
| 2026-05-05 21:52 | 46.35171 | 6.77546 | 31261 ft | 459 kts | 318° |
| 2026-05-05 21:52 | 46.37760 | 6.74843 | 31499 ft | 459 kts | 318° |
| 2026-05-05 21:52 | 46.40346 | 6.72144 | 31667 ft | 459 kts | 318° |
| 2026-05-05 21:53 | 46.42937 | 6.69434 | 31855 ft | 459 kts | 319° |
| 2026-05-05 21:53 | 46.45615 | 6.66861 | 32012 ft | 466 kts | 326° |
| 2026-05-05 21:53 | 46.48543 | 6.64733 | 32144 ft | 471 kts | 330° |
| 2026-05-05 21:53 | 46.51501 | 6.62735 | 32552 ft | 467 kts | 330° |
| 2026-05-05 21:54 | 46.54437 | 6.60752 | 32955 ft | 463 kts | 330° |
| 2026-05-05 21:54 | 46.57312 | 6.58784 | 33135 ft | 464 kts | 330° |
| 2026-05-05 21:54 | 46.60245 | 6.56745 | 33177 ft | 468 kts | 329° |
| 2026-05-05 21:54 | 46.63182 | 6.54680 | 33332 ft | 469 kts | 329° |
| 2026-05-05 21:55 | 46.66116 | 6.52606 | 33649 ft | 467 kts | 329° |
| 2026-05-05 21:55 | 46.69029 | 6.50543 | 33989 ft | 463 kts | 329° |
| 2026-05-05 21:55 | 46.71941 | 6.48474 | 33879 ft | 468 kts | 329° |
| 2026-05-05 21:56 | 46.77780 | 6.44319 | 33928 ft | 466 kts | 330° |
| 2026-05-05 21:56 | 46.83604 | 6.40170 | 33942 ft | 464 kts | 330° |
| 2026-05-05 21:57 | 46.89405 | 6.36026 | 33945 ft | 464 kts | 330° |
| 2026-05-05 21:57 | 46.95208 | 6.31872 | 33946 ft | 463 kts | 330° |
| 2026-05-05 21:58 | 47.01001 | 6.27714 | 33936 ft | 463 kts | 330° |
| 2026-05-05 21:58 | 47.06798 | 6.23544 | 33903 ft | 464 kts | 330° |
| 2026-05-05 21:59 | 47.12578 | 6.19397 | 33879 ft | 467 kts | 330° |
| 2026-05-05 21:59 | 47.18415 | 6.15206 | 33881 ft | 468 kts | 330° |
| 2026-05-05 22:00 | 47.23274 | 6.11707 | 33922 ft | 468 kts | 330° |
| 2026-05-05 22:00 | 47.29135 | 6.07475 | 33926 ft | 469 kts | 330° |
| 2026-05-05 22:01 | 47.35233 | 6.03963 | 33900 ft | 473 kts | 346° |
| 2026-05-05 22:01 | 47.41802 | 6.03236 | 33950 ft | 474 kts | 0° |
| 2026-05-05 22:02 | 47.48418 | 6.03535 | 33903 ft | 477 kts | 360° |
| 2026-05-05 22:02 | 47.55058 | 6.03720 | 33877 ft | 478 kts | 359° |
| 2026-05-05 22:03 | 47.61710 | 6.03851 | 33869 ft | 477 kts | 359° |
| 2026-05-05 22:03 | 47.68350 | 6.03983 | 33866 ft | 476 kts | 359° |
| 2026-05-05 22:04 | 47.74961 | 6.04378 | 33828 ft | 477 kts | 8° |
| 2026-05-05 22:04 | 47.78184 | 6.05460 | 33953 ft | 473 kts | 14° |
| 2026-05-05 22:04 | 47.81358 | 6.06727 | 33923 ft | 474 kts | 14° |
| 2026-05-05 22:05 | 47.87692 | 6.09211 | 33918 ft | 473 kts | 14° |
| 2026-05-05 22:05 | 47.94072 | 6.11642 | 33906 ft | 472 kts | 13° |
| 2026-05-05 22:06 | 48.00460 | 6.14050 | 33895 ft | 474 kts | 13° |
| 2026-05-05 22:06 | 48.06886 | 6.16476 | 33873 ft | 476 kts | 14° |
| 2026-05-05 22:07 | 48.13293 | 6.18904 | 33855 ft | 476 kts | 14° |
| 2026-05-05 22:07 | 48.19738 | 6.21355 | 33847 ft | 476 kts | 14° |
| 2026-05-05 22:08 | 48.26143 | 6.23797 | 33860 ft | 474 kts | 14° |
| 2026-05-05 22:08 | 48.32526 | 6.26237 | 33844 ft | 472 kts | 14° |
| 2026-05-05 22:09 | 48.38880 | 6.28672 | 33859 ft | 469 kts | 14° |
| 2026-05-05 22:09 | 48.45202 | 6.31101 | 33838 ft | 467 kts | 14° |
| 2026-05-05 22:10 | 48.51477 | 6.33519 | 33845 ft | 465 kts | 14° |
| 2026-05-05 22:10 | 48.57737 | 6.35937 | 33816 ft | 463 kts | 14° |
| 2026-05-05 22:11 | 48.63973 | 6.38351 | 33834 ft | 462 kts | 14° |
| 2026-05-05 22:11 | 48.70280 | 6.39766 | 33893 ft | 459 kts | 2° |
| 2026-05-05 22:12 | 48.76711 | 6.40269 | 33801 ft | 467 kts | 3° |
| 2026-05-05 22:12 | 48.79954 | 6.40557 | 33903 ft | 467 kts | 3° |
| 2026-05-05 22:12 | 48.83220 | 6.40872 | 33806 ft | 471 kts | 3° |
| 2026-05-05 22:13 | 48.89763 | 6.41545 | 33814 ft | 473 kts | 4° |
| 2026-05-05 22:13 | 48.96336 | 6.42233 | 33820 ft | 474 kts | 4° |
| 2026-05-05 22:14 | 49.02874 | 6.42913 | 33833 ft | 468 kts | 4° |
| 2026-05-05 22:14 | 49.09351 | 6.43552 | 33827 ft | 464 kts | 0° |
| 2026-05-05 22:15 | 49.15715 | 6.42237 | 33885 ft | 462 kts | 343° |
| 2026-05-05 22:15 | 49.21900 | 6.39547 | 33822 ft | 468 kts | 343° |
| 2026-05-05 22:16 | 49.28172 | 6.36891 | 33803 ft | 471 kts | 343° |
| 2026-05-05 22:16 | 49.34525 | 6.34260 | 33783 ft | 465 kts | 343° |
| 2026-05-05 22:16 | 49.37609 | 6.32987 | 33814 ft | 452 kts | 343° |
| 2026-05-05 22:17 | 49.40637 | 6.31733 | 33812 ft | 449 kts | 343° |
| 2026-05-05 22:17 | 49.46640 | 6.29236 | 33602 ft | 447 kts | 344° |
| 2026-05-05 22:17 | 49.49646 | 6.27983 | 33022 ft | 448 kts | 344° |
| 2026-05-05 22:18 | 49.52609 | 6.26752 | 32876 ft | 435 kts | 344° |
| 2026-05-05 22:18 | 49.55538 | 6.25552 | 32122 ft | 438 kts | 344° |
| 2026-05-05 22:18 | 49.58447 | 6.24366 | 31929 ft | 427 kts | 344° |
| 2026-05-05 22:18 | 49.61287 | 6.23209 | 31439 ft | 426 kts | 344° |
| 2026-05-05 22:19 | 49.64161 | 6.22033 | 31036 ft | 426 kts | 344° |
| 2026-05-05 22:19 | 49.67042 | 6.20852 | 30562 ft | 430 kts | 344° |
| 2026-05-05 22:19 | 49.69925 | 6.19667 | 30099 ft | 427 kts | 344° |
| 2026-05-05 22:19 | 49.72766 | 6.18498 | 29585 ft | 422 kts | 344° |
| 2026-05-05 22:20 | 49.75560 | 6.17346 | 29056 ft | 417 kts | 344° |
| 2026-05-05 22:20 | 49.78403 | 6.16173 | 28519 ft | 413 kts | 344° |
| 2026-05-05 22:20 | 49.81166 | 6.15031 | 28024 ft | 408 kts | 344° |
| 2026-05-05 22:20 | 49.83876 | 6.13818 | 27519 ft | 404 kts | 336° |
| 2026-05-05 22:21 | 49.86235 | 6.11540 | 26861 ft | 399 kts | 314° |
| 2026-05-05 22:21 | 49.87960 | 6.08273 | 26568 ft | 388 kts | 298° |
| 2026-05-05 22:21 | 49.89267 | 6.04683 | 26159 ft | 388 kts | 296° |
| 2026-05-05 22:21 | 49.90560 | 6.01011 | 25719 ft | 389 kts | 296° |
| 2026-05-05 22:22 | 49.91860 | 5.97307 | 25264 ft | 390 kts | 296° |
| 2026-05-05 22:22 | 49.93154 | 5.93640 | 24857 ft | 384 kts | 296° |
| 2026-05-05 22:22 | 49.94429 | 5.90051 | 24506 ft | 377 kts | 297° |
| 2026-05-05 22:22 | 49.95693 | 5.86505 | 24145 ft | 374 kts | 297° |
| 2026-05-05 22:23 | 49.96954 | 5.82974 | 23789 ft | 374 kts | 297° |
| 2026-05-05 22:23 | 49.98219 | 5.79433 | 23332 ft | 376 kts | 297° |
| 2026-05-05 22:23 | 49.99488 | 5.75883 | 22780 ft | 374 kts | 297° |
| 2026-05-05 22:23 | 50.00742 | 5.72371 | 22288 ft | 369 kts | 297° |
| 2026-05-05 22:24 | 50.01972 | 5.68927 | 21780 ft | 363 kts | 297° |
| 2026-05-05 22:24 | 50.03190 | 5.65512 | 21269 ft | 358 kts | 297° |
| 2026-05-05 22:24 | 50.04389 | 5.62143 | 20780 ft | 353 kts | 297° |
| 2026-05-05 22:24 | 50.05572 | 5.58815 | 20306 ft | 349 kts | 297° |
| 2026-05-05 22:25 | 50.06738 | 5.55528 | 19834 ft | 345 kts | 297° |
| 2026-05-05 22:25 | 50.07892 | 5.52272 | 19365 ft | 342 kts | 297° |
| 2026-05-05 22:25 | 50.09036 | 5.49042 | 18909 ft | 339 kts | 297° |
| 2026-05-05 22:25 | 50.10168 | 5.45841 | 18455 ft | 336 kts | 297° |
| 2026-05-05 22:26 | 50.11291 | 5.42660 | 18001 ft | 334 kts | 297° |
| 2026-05-05 22:26 | 50.12406 | 5.39497 | 17490 ft | 332 kts | 297° |
| 2026-05-05 22:26 | 50.13495 | 5.36404 | 17033 ft | 329 kts | 297° |
| 2026-05-05 22:26 | 50.14587 | 5.33301 | 16665 ft | 324 kts | 297° |
| 2026-05-05 22:27 | 50.15673 | 5.30211 | 16284 ft | 326 kts | 297° |
| 2026-05-05 22:27 | 50.16767 | 5.27091 | 15902 ft | 329 kts | 297° |
| 2026-05-05 22:27 | 50.17860 | 5.23973 | 15534 ft | 327 kts | 297° |
| 2026-05-05 22:27 | 50.18943 | 5.20882 | 15167 ft | 324 kts | 298° |
| 2026-05-05 22:28 | 50.20252 | 5.18007 | 14697 ft | 326 kts | 310° |
| 2026-05-05 22:28 | 50.21774 | 5.15424 | 14447 ft | 320 kts | 311° |
| 2026-05-05 22:28 | 50.23272 | 5.12871 | 14088 ft | 318 kts | 311° |
| 2026-05-05 22:28 | 50.24758 | 5.10306 | 13713 ft | 318 kts | 310° |
| 2026-05-05 22:29 | 50.26228 | 5.07744 | 13345 ft | 316 kts | 310° |
| 2026-05-05 22:29 | 50.27698 | 5.05167 | 12848 ft | 318 kts | 310° |
| 2026-05-05 22:29 | 50.29169 | 5.02575 | 12343 ft | 319 kts | 310° |
| 2026-05-05 22:29 | 50.30634 | 4.99986 | 11782 ft | 316 kts | 310° |
| 2026-05-05 22:30 | 50.32081 | 4.97422 | 11272 ft | 312 kts | 310° |
| 2026-05-05 22:30 | 50.33489 | 4.94926 | 11000 ft | 300 kts | 310° |
| 2026-05-05 22:30 | 50.34847 | 4.92513 | 10705 ft | 292 kts | 311° |
| 2026-05-05 22:30 | 50.36180 | 4.90142 | 10356 ft | 288 kts | 311° |
| 2026-05-05 22:31 | 50.37483 | 4.87820 | 9826 ft | 288 kts | 311° |
| 2026-05-05 22:31 | 50.38810 | 4.85454 | 9252 ft | 288 kts | 311° |
| 2026-05-05 22:31 | 50.40121 | 4.83115 | 8843 ft | 282 kts | 312° |
| 2026-05-05 22:31 | 50.41397 | 4.80835 | 8483 ft | 275 kts | 312° |
| 2026-05-05 22:32 | 50.42654 | 4.78587 | 7967 ft | 275 kts | 312° |
| 2026-05-05 22:32 | 50.43915 | 4.76333 | 7458 ft | 274 kts | 312° |
| 2026-05-05 22:32 | 50.45164 | 4.74098 | 7047 ft | 270 kts | 312° |
| 2026-05-05 22:32 | 50.46394 | 4.71891 | 6593 ft | 268 kts | 313° |
| 2026-05-05 22:33 | 50.47620 | 4.69691 | 6085 ft | 267 kts | 313° |
| 2026-05-05 22:33 | 50.48839 | 4.67498 | 5626 ft | 265 kts | 312° |
| 2026-05-05 22:33 | 50.50043 | 4.65327 | 5193 ft | 262 kts | 312° |
| 2026-05-05 22:33 | 50.51206 | 4.63129 | 4845 ft | 257 kts | 311° |
| 2026-05-05 22:34 | 50.52301 | 4.61002 | 4948 ft | 247 kts | 310° |
| 2026-05-05 22:34 | 50.53413 | 4.58827 | 4977 ft | 262 kts | 310° |
| 2026-05-05 22:34 | 50.54539 | 4.56625 | 4942 ft | 259 kts | 310° |
| 2026-05-05 22:34 | 50.55653 | 4.54438 | 4767 ft | 255 kts | 310° |
| 2026-05-05 22:35 | 50.56751 | 4.52305 | 4460 ft | 254 kts | 311° |
| 2026-05-05 22:35 | 50.57883 | 4.50193 | 4259 ft | 247 kts | 312° |
| 2026-05-05 22:35 | 50.58964 | 4.48178 | 4212 ft | 234 kts | 312° |
| 2026-05-05 22:35 | 50.60003 | 4.46245 | 3911 ft | 230 kts | 312° |
| 2026-05-05 22:36 | 50.61084 | 4.44400 | 3481 ft | 229 kts | 323° |
| 2026-05-05 22:36 | 50.62450 | 4.43166 | 3109 ft | 223 kts | 337° |
| 2026-05-05 22:36 | 50.63799 | 4.42090 | 2891 ft | 212 kts | 335° |
| 2026-05-05 22:36 | 50.65170 | 4.41355 | 2526 ft | 204 kts | 358° |
| 2026-05-05 22:37 | 50.66534 | 4.41399 | 2303 ft | 193 kts | 4° |
| 2026-05-05 22:37 | 50.67878 | 4.41446 | 1995 ft | 193 kts | 4° |
| 2026-05-05 22:37 | 50.69240 | 4.41486 | 2004 ft | 198 kts | 4° |
| 2026-05-05 22:37 | 50.70571 | 4.41792 | 1999 ft | 192 kts | 14° |
| 2026-05-05 22:38 | 50.71833 | 4.42285 | 1963 ft | 177 kts | 15° |
| 2026-05-05 22:38 | 50.72958 | 4.42744 | 1984 ft | 165 kts | 16° |
| 2026-05-05 22:38 | 50.74041 | 4.43186 | 1996 ft | 158 kts | 15° |
| 2026-05-05 22:38 | 50.75094 | 4.43614 | 2000 ft | 155 kts | 15° |
| 2026-05-05 22:39 | 50.76148 | 4.44042 | 1994 ft | 157 kts | 16° |
| 2026-05-05 22:39 | 50.77200 | 4.44469 | 1993 ft | 156 kts | 16° |
| 2026-05-05 22:39 | 50.78255 | 4.44898 | 1980 ft | 156 kts | 16° |
| 2026-05-05 22:39 | 50.79297 | 4.45320 | 1988 ft | 153 kts | 16° |
| 2026-05-05 22:40 | 50.80327 | 4.45736 | 1984 ft | 153 kts | 15° |
| 2026-05-05 22:40 | 50.81389 | 4.46155 | 1688 ft | 157 kts | 15° |
| 2026-05-05 22:40 | 50.82435 | 4.46575 | 1470 ft | 154 kts | 15° |
| 2026-05-05 22:40 | 50.83466 | 4.46994 | 1278 ft | 151 kts | 15° |
| 2026-05-05 22:41 | 50.84486 | 4.47415 | 1050 ft | 152 kts | 15° |
| 2026-05-05 22:41 | 50.85501 | 4.47836 | 865 ft | 151 kts | 15° |
| 2026-05-05 22:41 | 50.86528 | 4.48260 | 674 ft | 152 kts | 15° |
| 2026-05-05 22:41 | 50.87557 | 4.48678 | 457 ft | 153 kts | 14° |
| 2026-05-05 22:42 | 50.88577 | 4.49097 | 264 ft | 151 kts | 14° |
| 2026-05-05 22:42 | 50.89551 | 4.49490 | 159 ft | 125 kts | 13° |
| 2026-05-05 22:42 | 50.90180 | 4.49744 | 125 ft | 62 kts | 13° |
| 2026-05-05 22:42 | 50.90483 | 4.49867 | 121 ft | 41 kts | 15° |
| 2026-05-05 22:43 | 50.90759 | 4.49925 | 120 ft | 39 kts | 355° |
| 2026-05-05 22:43 | 50.90856 | 4.49876 | 122 ft | 6 kts | 314° |
| 2026-05-05 22:43 | 50.90868 | 4.49820 | 121 ft | 5 kts | 266° |
| 2026-05-05 22:43 | 50.90850 | 4.49765 | 122 ft | 6 kts | 242° |
| 2026-05-05 22:44 | 50.90831 | 4.49711 | 120 ft | 6 kts | 242° |
| 2026-05-05 22:44 | 50.90812 | 4.49649 | 119 ft | 7 kts | 246° |
| 2026-05-05 22:44 | 50.90785 | 4.49556 | 120 ft | 11 kts | 244° |
| 2026-05-05 22:44 | 50.90749 | 4.49436 | 121 ft | 13 kts | 245° |
| 2026-05-05 22:45 | 50.90709 | 4.49299 | 119 ft | 14 kts | 245° |
| 2026-05-05 22:45 | 50.90667 | 4.49158 | 117 ft | 15 kts | 245° |
| 2026-05-05 22:45 | 50.90625 | 4.49010 | 118 ft | 15 kts | 245° |
| 2026-05-05 22:45 | 50.90584 | 4.48866 | 120 ft | 14 kts | 245° |
| 2026-05-05 22:46 | 50.90555 | 4.48799 | 120 ft | 7 kts | 210° |
| 2026-05-05 22:46 | 50.90529 | 4.48806 | 120 ft | 0 kts | 151° |
| 2026-05-05 22:47 | 50.90526 | 4.48808 | 120 ft | 1 kts | 151° |
| 2026-05-05 22:47 | 50.90517 | 4.48815 | 119 ft | 2 kts | 154° |
| 2026-05-05 22:47 | 50.90508 | 4.48822 | 116 ft | 1 kts | 155° |
| 2026-05-05 22:48 | 50.90499 | 4.48829 | 118 ft | 1 kts | 155° |
| 2026-05-05 22:48 | 50.90490 | 4.48835 | 119 ft | 1 kts | 155° |
| 2026-05-05 22:48 | 50.90482 | 4.48841 | 117 ft | 1 kts | 155° |